Time;durP1;ratioP1;P1;durP2;ratioP2;P2;SDS_P1;SDS_P2;PMS_P1;PMS_P2;Temp;Humidity;BMP_temperature;BMP_pressure;BME280_temperature;BME280_humidity;BME280_pressure;Samples;Min_cycle;Max_cycle;Signal;HPM_P1;HPM_P2
2023/04/22 04:27:58;;;;;;;1.90;1.70;;;8.50;99.90;;;;;;5733367;22;20224;-95
2023/04/22 04:30:25;;;;;;;2.65;2.38;;;8.50;99.90;;;;;;5089149;28;20243;-92
2023/04/22 04:32:52;;;;;;;2.72;2.50;;;8.50;99.90;;;;;;5084939;28;20187;-92
2023/04/22 04:35:20;;;;;;;3.33;2.13;;;8.40;99.90;;;;;;5085518;28;20209;-92
2023/04/22 04:37:46;;;;;;;2.80;2.25;;;8.40;99.90;;;;;;5085574;28;20201;-95
2023/04/22 04:40:13;;;;;;;3.10;2.50;;;8.50;99.90;;;;;;5083979;28;20215;-92
2023/04/22 04:42:41;;;;;;;2.50;2.30;;;8.50;99.90;;;;;;5086843;28;20204;-93
2023/04/22 04:45:10;;;;;;;2.22;2.03;;;8.50;99.90;;;;;;5083234;28;20212;-94
2023/04/22 04:47:38;;;;;;;2.78;2.55;;;8.50;99.90;;;;;;5086983;28;20263;-93
2023/04/22 04:50:05;;;;;;;2.80;2.25;;;8.40;99.90;;;;;;5084982;28;20200;-95
2023/04/22 04:52:33;;;;;;;2.97;2.00;;;8.40;99.90;;;;;;5083988;28;20261;-93
2023/04/22 04:55:16;;;;;;;2.58;2.38;;;8.40;99.90;;;;;;5088323;28;20265;-93
2023/04/22 05:00:36;;;;;;;3.33;2.42;;;8.50;99.90;;;;;;5069260;28;20260;-94
2023/04/22 05:03:04;;;;;;;4.93;2.00;;;8.50;99.90;;;;;;5073981;28;20200;-94
2023/04/22 05:08:15;;;;;;;2.45;2.20;;;8.50;99.90;;;;;;5062208;28;20288;-93
2023/04/22 05:10:43;;;;;;;2.67;2.40;;;8.50;99.90;;;;;;5063915;28;20205;-94
2023/04/22 05:13:11;;;;;;;5.53;2.35;;;8.60;99.90;;;;;;5073172;28;20205;-94
2023/04/22 05:15:44;;;;;;;2.40;2.05;;;8.60;99.90;;;;;;5064909;28;20284;-94
2023/04/22 05:24:10;;;;;;;2.75;2.42;;;8.70;99.90;;;;;;5045674;28;20193;-93
2023/04/22 05:26:49;;;;;;;2.70;2.30;;;8.80;99.90;;;;;;5041948;28;20312;-94
2023/04/22 05:29:17;;;;;;;2.65;2.15;;;8.80;99.90;;;;;;5042713;28;20224;-92
2023/04/22 05:31:51;;;;;;;2.40;2.20;;;8.90;99.90;;;;;;5043407;28;20212;-93
2023/04/22 05:34:20;;;;;;;1.92;1.83;;;9.00;99.90;;;;;;5044545;28;20256;-93
2023/04/22 05:36:48;;;;;;;2.63;2.05;;;9.00;99.90;;;;;;5048815;28;20208;-93
2023/04/22 05:39:15;;;;;;;2.97;2.25;;;9.10;99.90;;;;;;5047594;28;20233;-93
2023/04/22 05:41:48;;;;;;;1.95;1.75;;;9.20;99.90;;;;;;5045438;28;20576;-94
2023/04/22 05:44:17;;;;;;;2.22;2.03;;;9.30;99.90;;;;;;5041454;28;20202;-92
2023/04/22 05:46:44;;;;;;;4.05;2.50;;;9.40;99.90;;;;;;5039353;28;20256;-92
2023/04/22 05:49:14;;;;;;;3.63;2.42;;;9.60;99.90;;;;;;5039709;28;20233;-92
2023/04/22 05:57:07;;;;;;;3.05;2.75;;;10.10;99.90;;;;;;5011615;28;20264;-92
2023/04/22 06:41:51;;;;;;;3.20;2.90;;;12.90;99.90;;;;;;5060417;28;20524;-90
2023/04/22 06:44:30;;;;;;;3.07;2.13;;;12.90;99.90;;;;;;5045649;28;20465;-91
2023/04/22 06:46:58;;;;;;;2.87;2.40;;;13.00;99.90;;;;;;5030414;28;20534;-91
2023/04/22 06:49:26;;;;;;;2.70;2.40;;;13.10;99.90;;;;;;5041146;28;20460;-92
2023/04/22 06:51:57;;;;;;;2.83;2.63;;;13.20;99.90;;;;;;5038726;28;20574;-91
2023/04/22 06:54:25;;;;;;;4.23;2.77;;;13.20;99.90;;;;;;5038108;28;20506;-91
2023/04/22 06:59:58;;;;;;;2.50;2.20;;;13.40;99.90;;;;;;5089070;23;20902;-91
2023/04/22 07:06:13;;;;;;;2.57;2.37;;;13.60;99.90;;;;;;5071688;28;20517;-90
2023/04/22 07:15:56;;;;;;;2.30;2.10;;;14.00;99.90;;;;;;5065013;28;20450;-93
2023/04/22 07:27:16;;;;;;;2.60;2.40;;;14.10;99.90;;;;;;5055253;28;21011;-90
2023/04/22 07:29:56;;;;;;;2.77;2.53;;;14.30;99.90;;;;;;5058275;28;20550;-92
2023/04/22 07:32:31;;;;;;;2.90;2.43;;;14.40;99.90;;;;;;5057471;28;20459;-93
2023/04/22 07:34:59;;;;;;;2.70;2.50;;;14.50;99.90;;;;;;5061693;28;20458;-94
2023/04/22 07:43:19;;;;;;;3.00;2.47;;;14.90;99.90;;;;;;5053766;28;20471;-92
2023/04/22 07:45:47;;;;;;;2.40;2.20;;;15.00;99.90;;;;;;5055396;28;20470;-92
2023/04/22 07:48:30;;;;;;;2.80;2.50;;;15.10;99.90;;;;;;5055105;28;20479;-92
2023/04/22 07:51:21;;;;;;;2.60;2.40;;;15.10;99.90;;;;;;5055888;28;20459;-91
2023/04/22 07:57:11;;;;;;;4.33;2.60;;;15.00;99.90;;;;;;5059639;28;20447;-92
2023/04/22 07:59:57;;;;;;;3.23;2.57;;;15.10;99.90;;;;;;5072564;28;21049;-94
2023/04/22 08:03:05;;;;;;;4.33;2.07;;;15.00;99.90;;;;;;5077126;28;20462;-93
2023/04/22 08:06:01;;;;;;;2.60;2.40;;;15.00;99.90;;;;;;5078685;28;20892;-93
2023/04/22 08:09:18;;;;;;;2.40;1.50;;;15.30;99.90;;;;;;5075285;28;20555;-94
2023/04/22 08:11:47;;;;;;;2.27;2.07;;;15.40;99.90;;;;;;5077333;28;20835;-93
2023/04/22 08:14:14;;;;;;;2.23;2.03;;;15.60;99.90;;;;;;5076309;28;20840;-93
2023/04/22 08:16:42;;;;;;;1.50;1.40;;;15.60;99.90;;;;;;5075561;28;20561;-94
2023/04/22 08:19:17;;;;;;;1.80;1.70;;;15.60;99.90;;;;;;5075342;28;20566;-93
2023/04/22 08:21:45;;;;;;;2.20;2.00;;;16.00;99.90;;;;;;5078680;28;20484;-94
2023/04/22 08:24:19;;;;;;;2.10;1.90;;;16.20;99.90;;;;;;5076779;28;20525;-93
2023/04/22 08:29:40;;;;;;;2.20;2.00;;;16.40;99.90;;;;;;5073203;22;20486;-94
2023/04/22 08:32:07;;;;;;;2.93;2.60;;;17.00;99.90;;;;;;5062299;28;20464;-93
2023/04/22 08:34:34;;;;;;;7.90;7.07;;;17.50;99.90;;;;;;5054909;28;20977;-93
2023/04/22 08:37:01;;;;;;;4.27;2.80;;;18.30;99.90;;;;;;5055753;28;20459;-93
2023/04/22 08:39:28;;;;;;;2.50;2.30;;;18.70;99.90;;;;;;5056224;28;20466;-93
2023/04/22 08:41:57;;;;;;;2.40;2.20;;;19.00;99.90;;;;;;5058190;28;20522;-92
2023/04/22 08:44:25;;;;;;;2.93;2.50;;;19.20;99.90;;;;;;5057267;28;20467;-93
2023/04/22 08:46:54;;;;;;;2.30;2.10;;;19.50;99.90;;;;;;5069106;28;20455;-93
2023/04/22 08:49:24;;;;;;;1.90;1.80;;;19.30;99.90;;;;;;5061693;28;20462;-93
2023/04/22 08:51:51;;;;;;;2.37;2.17;;;18.90;99.90;;;;;;5055266;28;20463;-93
2023/04/22 08:54:18;;;;;;;2.80;2.10;;;19.10;99.90;;;;;;5054442;28;20468;-93
2023/04/22 08:56:45;;;;;;;2.03;1.77;;;19.70;99.90;;;;;;5055516;28;21008;-93
2023/04/22 08:59:15;;;;;;;2.80;2.00;;;20.20;99.90;;;;;;5058669;28;20508;-93
2023/04/22 09:01:42;;;;;;;2.67;2.13;;;20.70;99.90;;;;;;5059964;28;20506;-93
2023/04/22 09:04:10;;;;;;;3.50;2.40;;;21.30;99.90;;;;;;5061293;28;20444;-92
2023/04/22 09:06:40;;;;;;;3.33;2.60;;;21.30;99.90;;;;;;5061722;28;20546;-93
2023/04/22 09:09:08;;;;;;;3.20;2.13;;;22.00;99.90;;;;;;5061585;28;20495;-93
2023/04/22 09:11:38;;;;;;;2.43;2.23;;;22.30;99.70;;;;;;5063175;28;20466;-94
2023/04/22 09:14:08;;;;;;;2.17;1.93;;;22.80;99.70;;;;;;5058801;28;20527;-92
2023/04/22 09:16:41;;;;;;;1.97;1.77;;;23.30;97.90;;;;;;5054709;28;20479;-93
2023/04/22 09:19:14;;;;;;;2.17;1.97;;;23.70;97.60;;;;;;5040597;28;20556;-94
2023/04/22 09:21:47;;;;;;;2.53;2.17;;;23.60;96.50;;;;;;5061743;28;20463;-93
2023/04/22 09:24:31;;;;;;;2.23;2.03;;;22.20;97.40;;;;;;5059840;28;20578;-92
2023/04/22 09:27:04;;;;;;;2.00;1.80;;;21.50;98.00;;;;;;5058444;28;20455;-91
2023/04/22 09:29:46;;;;;;;2.20;1.90;;;20.80;98.20;;;;;;5061090;28;20537;-92
2023/04/22 09:35:09;;;;;;;2.03;1.90;;;21.10;98.10;;;;;;5060556;28;20462;-93
2023/04/22 09:37:43;;;;;;;1.83;1.70;;;21.60;97.90;;;;;;5062125;28;20479;-92
2023/04/22 09:40:15;;;;;;;2.00;1.80;;;22.60;98.70;;;;;;5058400;28;20459;-93
2023/04/22 09:42:49;;;;;;;1.63;1.50;;;23.60;95.40;;;;;;5074544;28;20470;-93
2023/04/22 09:45:30;;;;;;;1.47;1.37;;;24.40;94.30;;;;;;5068423;28;20478;-93
2023/04/22 09:48:06;;;;;;;2.67;1.60;;;24.70;94.30;;;;;;5065413;28;20477;-93
2023/04/22 09:50:33;;;;;;;1.30;1.20;;;24.60;91.90;;;;;;5065711;28;20565;-91
2023/04/22 09:53:05;;;;;;;1.23;1.13;;;24.40;91.70;;;;;;5066890;28;20444;-93
2023/04/22 09:55:35;;;;;;;1.70;1.60;;;24.20;90.30;;;;;;5068235;28;20453;-94
2023/04/22 09:58:08;;;;;;;1.60;1.50;;;23.40;91.20;;;;;;5073755;28;20497;-92
2023/04/22 10:00:37;;;;;;;1.87;1.63;;;23.10;91.70;;;;;;5071838;28;20455;-95
2023/04/22 10:03:06;;;;;;;1.70;1.60;;;23.40;91.70;;;;;;5067379;28;20466;-93
2023/04/22 10:05:36;;;;;;;1.70;1.60;;;24.20;91.70;;;;;;5067506;28;20481;-94
2023/04/22 10:08:04;;;;;;;1.50;1.40;;;25.40;91.00;;;;;;5072694;28;21120;-94
2023/04/22 10:10:31;;;;;;;1.60;1.47;;;25.70;91.10;;;;;;5070680;28;20454;-94
2023/04/22 10:12:59;;;;;;;1.70;1.40;;;26.20;90.20;;;;;;5073476;28;20460;-94
2023/04/22 10:18:22;;;;;;;3.77;1.70;;;27.20;86.10;;;;;;5072858;28;20536;-94
2023/04/22 10:20:57;;;;;;;1.67;1.50;;;26.80;89.10;;;;;;5073430;28;20455;-94
2023/04/22 10:23:25;;;;;;;1.93;1.57;;;27.30;86.10;;;;;;5074958;28;20466;-94
2023/04/22 10:26:05;;;;;;;1.90;1.70;;;26.80;83.60;;;;;;5076304;28;20532;-93
2023/04/22 10:31:22;;;;;;;1.87;1.67;;;27.40;80.50;;;;;;5618744;22;20490;-94
2023/04/22 10:34:11;;;;;;;1.50;1.37;;;27.30;84.70;;;;;;5040580;28;20508;-95
2023/04/22 10:36:58;;;;;;;1.40;1.30;;;27.00;83.70;;;;;;5040622;28;20441;-95
2023/04/22 10:42:51;;;;;;;1.57;1.47;;;28.60;82.20;;;;;;5038773;28;20444;-96
2023/04/22 10:45:25;;;;;;;1.60;1.23;;;28.50;75.40;;;;;;5053312;28;20468;-95
2023/04/22 10:47:52;;;;;;;1.80;1.40;;;28.10;69.00;;;;;;5060495;28;20452;-94
2023/04/22 10:50:26;;;;;;;1.43;1.17;;;27.90;69.80;;;;;;5060483;28;20444;-94
2023/04/22 10:53:05;;;;;;;3.27;1.80;;;27.90;69.20;;;;;;5101268;22;20602;-95
2023/04/22 10:55:55;;;;;;;1.40;1.30;;;27.30;73.40;;;;;;5039796;28;20422;-95
2023/04/22 10:58:28;;;;;;;1.50;1.40;;;27.90;72.10;;;;;;5039210;28;20480;-93
2023/04/22 11:03:37;;;;;;;2.43;1.40;;;27.20;71.00;;;;;;5639024;22;20479;-95
2023/04/22 11:06:21;;;;;;;2.53;1.80;;;26.00;71.30;;;;;;5080306;28;20432;-94
2023/04/22 11:11:25;;;;;;;1.47;1.37;;;26.40;75.20;;;;;;5333035;22;20503;-94
2023/04/22 11:13:53;;;;;;;1.70;1.37;;;27.30;73.40;;;;;;5078286;28;20456;-93
2023/04/22 11:16:24;;;;;;;1.40;1.30;;;26.70;72.00;;;;;;5063118;28;20488;-95
2023/04/22 11:22:08;;;;;;;1.30;1.20;;;27.60;70.40;;;;;;5050703;28;20467;-95
2023/04/22 11:24:35;;;;;;;2.17;1.53;;;27.10;69.80;;;;;;5058163;28;20442;-94
2023/04/22 11:27:15;;;;;;;3.50;1.53;;;26.20;71.00;;;;;;5143239;22;20529;-94
2023/04/22 11:29:42;;;;;;;1.50;1.40;;;25.60;71.30;;;;;;5039084;28;20478;-94
2023/04/22 14:02:59;;;;;;;2.07;1.60;;;23.00;80.10;;;;;;765273;22;20728;-87
2023/04/22 14:05:26;;;;;;;2.50;1.87;;;22.80;79.50;;;;;;5097433;28;20454;-93
2023/04/22 14:07:54;;;;;;;1.63;1.50;;;22.70;80.60;;;;;;5082121;28;20458;-93
2023/04/22 14:16:01;;;;;;;3.00;1.80;;;22.40;81.40;;;;;;5012793;28;20469;-68
2023/04/22 14:18:30;;;;;;;1.50;1.30;;;22.20;82.70;;;;;;5032093;28;20821;-70
2023/04/22 14:20:57;;;;;;;1.90;1.60;;;22.20;83.70;;;;;;5013180;28;20461;-68
2023/04/22 14:23:23;;;;;;;1.50;1.40;;;22.20;84.30;;;;;;5003101;28;20488;-69
2023/04/22 14:25:50;;;;;;;2.23;1.67;;;22.30;82.20;;;;;;5013415;28;20469;-69
2023/04/22 14:28:17;;;;;;;1.87;1.37;;;22.30;83.00;;;;;;5013592;28;20461;-70
2023/04/22 14:30:43;;;;;;;2.17;1.60;;;22.10;82.00;;;;;;5013024;28;20464;-69
2023/04/22 14:33:11;;;;;;;2.30;1.50;;;21.90;82.30;;;;;;5013366;28;20991;-69
2023/04/22 14:35:39;;;;;;;1.70;1.60;;;21.80;82.80;;;;;;5011975;28;20569;-69
2023/04/22 14:38:08;;;;;;;1.80;1.60;;;21.60;83.60;;;;;;5013171;28;20492;-69
2023/04/22 14:40:34;;;;;;;2.23;1.70;;;21.50;84.20;;;;;;5011466;28;20514;-69
2023/04/22 14:43:04;;;;;;;2.10;1.70;;;21.40;84.60;;;;;;4999825;28;20478;-69
2023/04/22 14:45:31;;;;;;;2.07;1.53;;;21.40;85.50;;;;;;5011391;28;20845;-69
2023/04/22 14:47:58;;;;;;;1.53;1.43;;;21.30;85.00;;;;;;5011357;28;20518;-69
2023/04/22 14:50:26;;;;;;;1.80;1.70;;;21.30;87.30;;;;;;5013432;28;20461;-69
2023/04/22 14:52:54;;;;;;;2.83;1.70;;;21.60;85.20;;;;;;5012473;28;20575;-69
2023/04/22 14:55:21;;;;;;;1.73;1.60;;;22.10;86.70;;;;;;5013429;28;20523;-69
2023/04/22 14:57:48;;;;;;;2.43;1.60;;;22.60;85.40;;;;;;5012971;28;20477;-69
2023/04/22 15:00:15;;;;;;;1.43;1.33;;;23.20;86.30;;;;;;5013216;28;20468;-69
2023/04/22 15:02:42;;;;;;;1.90;1.80;;;23.40;83.60;;;;;;5012380;28;20492;-69
2023/04/22 15:05:09;;;;;;;1.77;1.40;;;23.50;83.20;;;;;;5013070;28;20464;-69
2023/04/22 15:07:36;;;;;;;1.80;1.60;;;23.40;83.00;;;;;;5012401;28;20497;-69
2023/04/22 15:10:04;;;;;;;2.00;1.80;;;23.20;84.00;;;;;;5012557;28;20953;-73
2023/04/22 15:12:31;;;;;;;1.43;1.33;;;22.80;83.50;;;;;;5012277;28;20496;-69
2023/04/22 15:14:58;;;;;;;2.37;1.43;;;22.50;84.50;;;;;;5012618;28;20843;-68
2023/04/22 15:17:26;;;;;;;2.90;2.20;;;22.30;84.70;;;;;;5012645;28;20469;-68
2023/04/22 15:19:56;;;;;;;2.03;1.90;;;22.30;86.20;;;;;;5012408;28;20465;-69
2023/04/22 15:22:23;;;;;;;1.87;1.73;;;22.20;85.90;;;;;;5012404;28;20489;-67
2023/04/22 15:24:50;;;;;;;2.47;1.93;;;22.20;85.30;;;;;;5012512;28;20952;-69
2023/04/22 15:27:18;;;;;;;1.67;1.27;;;22.20;84.50;;;;;;5012591;28;20732;-68
2023/04/22 15:29:46;;;;;;;2.40;1.63;;;22.10;86.20;;;;;;5012073;28;20468;-69
2023/04/22 15:32:13;;;;;;;2.00;1.90;;;21.80;85.70;;;;;;5012327;28;20539;-69
2023/04/22 15:34:39;;;;;;;1.83;1.73;;;21.60;87.10;;;;;;5012239;28;20460;-72
2023/04/22 15:37:06;;;;;;;1.60;1.50;;;21.50;87.40;;;;;;5012522;28;20565;-69
2023/04/22 15:39:33;;;;;;;2.30;1.90;;;21.30;87.40;;;;;;5012142;28;21293;-69
2023/04/22 15:42:00;;;;;;;3.73;1.50;;;21.20;86.60;;;;;;5011870;28;20467;-69
2023/04/22 15:44:29;;;;;;;1.77;1.60;;;21.10;86.30;;;;;;5012326;28;20940;-68
2023/04/22 15:46:57;;;;;;;2.03;1.83;;;21.00;87.10;;;;;;5011863;28;20548;-68
2023/04/22 15:49:24;;;;;;;1.50;1.33;;;20.90;86.40;;;;;;5012114;28;20457;-69
2023/04/22 15:51:51;;;;;;;2.43;1.70;;;20.80;87.20;;;;;;5011418;28;20983;-68
2023/04/22 15:54:17;;;;;;;2.20;1.83;;;20.70;86.90;;;;;;5011982;28;20835;-69
2023/04/22 15:56:44;;;;;;;2.27;1.97;;;20.60;87.10;;;;;;5009682;28;20462;-69
2023/04/22 15:59:11;;;;;;;3.63;1.67;;;20.60;88.60;;;;;;5011860;28;20576;-69
2023/04/22 16:01:39;;;;;;;2.00;1.80;;;20.50;88.20;;;;;;5011461;28;20465;-69
2023/04/22 16:04:06;;;;;;;2.37;1.90;;;20.50;88.10;;;;;;5011749;28;20485;-68
2023/04/22 16:06:34;;;;;;;2.10;1.60;;;20.60;88.10;;;;;;5011098;28;20469;-68
2023/04/22 16:09:01;;;;;;;1.70;1.60;;;20.60;88.70;;;;;;5011481;28;21097;-68
2023/04/22 16:11:28;;;;;;;1.83;1.73;;;20.70;89.70;;;;;;5011630;28;20465;-68
2023/04/22 16:13:54;;;;;;;3.33;2.00;;;20.70;88.10;;;;;;5011241;28;20491;-69
2023/04/22 16:16:22;;;;;;;2.23;2.00;;;20.70;88.60;;;;;;5012008;28;20469;-68
2023/04/22 16:18:50;;;;;;;1.87;1.67;;;20.60;89.00;;;;;;5009480;28;20485;-68
2023/04/22 16:21:17;;;;;;;1.70;1.60;;;20.50;89.80;;;;;;5010301;28;20958;-68
2023/04/22 16:23:44;;;;;;;2.27;2.07;;;20.30;89.00;;;;;;5010510;28;20488;-69
2023/04/22 16:26:11;;;;;;;2.33;1.50;;;20.20;89.50;;;;;;5011984;28;20470;-70
2023/04/22 16:28:41;;;;;;;2.10;1.80;;;20.10;90.00;;;;;;5065240;22;20487;-92
2023/04/22 16:31:10;;;;;;;2.00;1.83;;;20.00;90.10;;;;;;5074614;28;20466;-92
2023/04/22 16:33:37;;;;;;;1.80;1.47;;;20.00;90.00;;;;;;5076627;28;20450;-95
2023/04/22 16:36:21;;;;;;;1.53;1.43;;;19.90;89.30;;;;;;5077298;28;20452;-94
2023/04/22 16:38:55;;;;;;;1.67;1.57;;;19.80;90.20;;;;;;5074018;28;20488;-93
2023/04/22 16:41:23;;;;;;;2.40;1.67;;;19.70;90.00;;;;;;5077670;28;20464;-90
2023/04/22 16:43:50;;;;;;;2.27;2.07;;;19.60;90.00;;;;;;5077469;28;20435;-92
2023/04/22 16:46:26;;;;;;;1.67;1.57;;;19.60;90.00;;;;;;5075168;28;20456;-90
2023/04/22 16:48:56;;;;;;;1.80;1.50;;;19.60;89.50;;;;;;5074185;28;20459;-90
2023/04/22 16:51:26;;;;;;;2.63;1.90;;;19.60;88.60;;;;;;5073837;28;20435;-91
2023/04/22 16:53:56;;;;;;;2.40;1.73;;;19.60;89.30;;;;;;5072426;28;20494;-91
2023/04/22 16:56:23;;;;;;;2.57;1.50;;;19.40;89.70;;;;;;5082888;22;20432;-69
2023/04/22 16:58:50;;;;;;;1.80;1.43;;;19.40;89.20;;;;;;5028321;28;20802;-69
2023/04/22 17:01:17;;;;;;;4.87;2.30;;;19.30;89.30;;;;;;5027181;28;20457;-69
2023/04/22 17:03:43;;;;;;;2.00;1.80;;;19.30;89.70;;;;;;5031556;28;20484;-70
2023/04/22 17:06:10;;;;;;;1.50;1.40;;;19.20;89.90;;;;;;5039010;28;20466;-70
2023/04/22 17:08:41;;;;;;;2.00;1.80;;;19.20;89.60;;;;;;5046642;28;20478;-70
2023/04/22 17:11:08;;;;;;;1.93;1.63;;;19.20;90.10;;;;;;5046864;28;20459;-70
2023/04/22 17:13:35;;;;;;;2.90;1.90;;;19.10;90.00;;;;;;5046895;28;20562;-70
2023/04/22 17:16:02;;;;;;;1.97;1.50;;;19.10;90.40;;;;;;5047218;28;20467;-70
2023/04/22 17:18:29;;;;;;;1.57;1.20;;;19.00;90.40;;;;;;5046701;28;20902;-70
2023/04/22 17:20:55;;;;;;;2.00;1.80;;;19.00;90.10;;;;;;5046587;28;20463;-70
2023/04/22 17:23:22;;;;;;;1.87;1.67;;;18.90;90.40;;;;;;5047997;28;21121;-70
2023/04/22 17:25:51;;;;;;;2.10;1.90;;;18.80;90.60;;;;;;5047117;28;20514;-69
2023/04/22 17:28:18;;;;;;;3.00;2.07;;;18.80;90.60;;;;;;5039352;28;20847;-70
2023/04/22 17:30:45;;;;;;;2.57;1.87;;;18.70;91.30;;;;;;5046703;28;20529;-70
2023/04/22 17:33:13;;;;;;;1.50;1.40;;;18.70;91.00;;;;;;5046890;28;20484;-70
2023/04/22 17:35:40;;;;;;;2.17;1.97;;;18.70;91.20;;;;;;5031142;28;21018;-70
2023/04/22 17:38:07;;;;;;;1.90;1.80;;;18.70;91.50;;;;;;5039673;28;21327;-70
2023/04/22 17:40:34;;;;;;;2.20;1.83;;;18.60;91.30;;;;;;5041391;28;20498;-70
2023/04/22 17:43:03;;;;;;;2.53;1.97;;;18.60;91.30;;;;;;5044976;28;20483;-70
2023/04/22 17:45:30;;;;;;;2.30;2.10;;;18.60;91.60;;;;;;5040005;28;20455;-70
2023/04/22 17:47:57;;;;;;;2.40;2.20;;;18.50;91.70;;;;;;5036503;28;20522;-70
2023/04/22 17:50:25;;;;;;;2.40;1.93;;;18.50;91.80;;;;;;5042236;28;20491;-70
2023/04/22 17:52:52;;;;;;;3.10;2.17;;;18.40;92.40;;;;;;5044769;28;20510;-70
2023/04/22 17:55:20;;;;;;;1.87;1.67;;;18.40;92.50;;;;;;5028043;28;20503;-70
2023/04/22 17:57:47;;;;;;;2.47;1.90;;;18.40;92.70;;;;;;5037056;28;20482;-70
2023/04/22 18:00:16;;;;;;;3.07;2.33;;;18.30;93.10;;;;;;5050176;28;20557;-70
2023/04/22 18:02:44;;;;;;;2.03;1.77;;;18.20;93.40;;;;;;5030717;28;20512;-70
2023/04/22 18:05:10;;;;;;;3.00;1.80;;;18.20;93.80;;;;;;5040376;28;20471;-70
2023/04/22 18:07:38;;;;;;;1.63;1.53;;;18.10;94.30;;;;;;5040498;28;20846;-70
2023/04/22 18:10:06;;;;;;;1.87;1.67;;;18.00;94.50;;;;;;5030011;28;20467;-70
2023/04/22 18:12:33;;;;;;;1.87;1.63;;;18.00;94.80;;;;;;5030945;28;20534;-70
2023/04/22 18:15:00;;;;;;;1.87;1.77;;;17.90;95.20;;;;;;5029842;28;21002;-70
2023/04/22 18:17:28;;;;;;;2.80;1.93;;;17.80;95.70;;;;;;5039410;28;20459;-70
2023/04/22 18:19:56;;;;;;;2.07;1.77;;;17.70;96.00;;;;;;5044901;28;20536;-70
2023/04/22 18:22:23;;;;;;;4.40;1.90;;;17.60;96.50;;;;;;5028662;28;20492;-70
2023/04/22 18:24:50;;;;;;;1.87;1.47;;;17.40;96.80;;;;;;5036347;28;20674;-70
2023/04/22 18:27:17;;;;;;;2.10;1.90;;;17.30;97.40;;;;;;5042146;28;20486;-70
2023/04/22 18:29:46;;;;;;;2.33;2.13;;;17.10;97.60;;;;;;5047815;28;20517;-70
2023/04/22 18:32:15;;;;;;;2.23;1.87;;;17.00;97.70;;;;;;5047271;28;21090;-70
2023/04/22 18:34:44;;;;;;;1.93;1.70;;;16.90;98.00;;;;;;5038887;28;20495;-70
2023/04/22 18:37:11;;;;;;;1.93;1.50;;;16.80;98.20;;;;;;5043793;28;20526;-70
2023/04/22 18:39:38;;;;;;;2.20;2.00;;;16.80;98.50;;;;;;5027825;28;20480;-70
2023/04/22 18:42:05;;;;;;;3.03;1.90;;;16.70;98.70;;;;;;5047149;28;20520;-70
2023/04/22 18:44:33;;;;;;;3.97;2.30;;;16.60;98.90;;;;;;5049033;28;20576;-70
2023/04/22 18:47:00;;;;;;;3.10;2.20;;;16.60;99.00;;;;;;5050997;28;20878;-70
2023/04/22 18:49:27;;;;;;;2.27;1.90;;;16.50;98.80;;;;;;5043214;28;20463;-70
2023/04/22 18:51:55;;;;;;;3.33;2.03;;;16.50;99.00;;;;;;5041811;28;20474;-70
2023/04/22 18:54:22;;;;;;;2.43;1.60;;;16.40;99.00;;;;;;5050913;28;20990;-70
2023/04/22 18:56:48;;;;;;;2.57;2.00;;;16.40;99.30;;;;;;5050719;28;20467;-70
2023/04/22 18:59:15;;;;;;;1.83;1.73;;;16.40;99.80;;;;;;5050772;28;20483;-70
2023/04/22 19:01:42;;;;;;;2.20;1.70;;;16.30;99.90;;;;;;5050225;28;20463;-70
2023/04/22 19:04:08;;;;;;;2.00;1.50;;;16.30;99.90;;;;;;5051847;28;20518;-70
2023/04/22 19:06:35;;;;;;;3.00;1.80;;;16.10;99.90;;;;;;5051304;28;20470;-70
2023/04/22 19:09:04;;;;;;;2.03;1.93;;;16.10;99.90;;;;;;5051297;28;20456;-70
2023/04/22 19:11:31;;;;;;;2.13;1.77;;;16.00;99.90;;;;;;5046905;28;20463;-70
2023/04/22 19:13:58;;;;;;;4.67;2.20;;;15.90;99.90;;;;;;5038487;28;20476;-71
2023/04/22 19:16:24;;;;;;;2.37;1.73;;;15.70;99.90;;;;;;5041927;28;20558;-70
2023/04/22 19:18:51;;;;;;;2.57;1.73;;;15.70;99.90;;;;;;5037884;28;20498;-70
2023/04/22 19:21:18;;;;;;;2.17;1.93;;;15.60;99.90;;;;;;5046272;28;20885;-71
2023/04/22 19:23:45;;;;;;;2.07;1.90;;;15.60;99.90;;;;;;5035550;28;20922;-71
2023/04/22 19:26:13;;;;;;;2.90;1.80;;;15.60;99.90;;;;;;5041176;28;20467;-70
2023/04/22 19:28:45;;;;;;;2.03;1.77;;;15.60;99.90;;;;;;5048504;28;20914;-70
2023/04/22 19:31:12;;;;;;;2.33;2.00;;;15.60;99.90;;;;;;5048821;28;20459;-71
2023/04/22 19:33:39;;;;;;;2.30;2.10;;;15.50;99.90;;;;;;5048263;28;20490;-71
2023/04/22 19:36:06;;;;;;;2.03;1.90;;;15.50;99.90;;;;;;5048970;28;20463;-71
2023/04/22 19:38:32;;;;;;;2.40;1.97;;;15.40;99.90;;;;;;5048433;28;20460;-71
2023/04/22 19:40:59;;;;;;;2.50;2.27;;;15.40;99.90;;;;;;5048160;28;20460;-71
2023/04/22 19:43:28;;;;;;;2.90;2.23;;;15.30;99.90;;;;;;5048594;28;20487;-71
2023/04/22 19:45:54;;;;;;;2.20;1.87;;;15.30;99.90;;;;;;5048149;28;20470;-71
2023/04/22 19:48:22;;;;;;;2.40;2.10;;;15.20;99.90;;;;;;5048296;28;21390;-70
2023/04/22 19:50:49;;;;;;;4.57;1.83;;;15.10;99.90;;;;;;5047382;28;20463;-72
2023/04/22 19:53:17;;;;;;;1.83;1.60;;;15.10;99.90;;;;;;5048299;28;20490;-71
2023/04/22 19:55:44;;;;;;;2.03;1.60;;;15.00;99.90;;;;;;5046666;28;20459;-72
2023/04/22 19:58:11;;;;;;;3.07;1.97;;;15.00;99.90;;;;;;5048234;28;20998;-72
2023/04/22 20:00:41;;;;;;;1.83;1.73;;;15.00;99.90;;;;;;5047826;28;20483;-72
2023/04/22 20:03:09;;;;;;;2.37;2.17;;;15.00;99.90;;;;;;5048439;28;20554;-72
2023/04/22 20:05:36;;;;;;;2.60;1.50;;;14.90;99.90;;;;;;5041914;28;20464;-72
2023/04/22 20:08:03;;;;;;;2.27;1.80;;;14.80;99.90;;;;;;5044387;28;20495;-72
2023/04/22 20:10:30;;;;;;;2.03;1.83;;;14.70;99.90;;;;;;5041577;28;20451;-72
2023/04/22 20:12:58;;;;;;;2.00;1.80;;;14.80;99.90;;;;;;5047969;28;20545;-72
2023/04/22 20:15:25;;;;;;;1.83;1.60;;;14.70;99.90;;;;;;5035614;28;20500;-72
2023/04/22 20:17:54;;;;;;;2.23;1.67;;;14.70;99.90;;;;;;5044876;28;21114;-72
2023/04/22 20:20:22;;;;;;;2.37;1.93;;;14.70;99.90;;;;;;5047912;28;21308;-72
2023/04/22 20:22:51;;;;;;;3.57;2.70;;;14.60;99.90;;;;;;5038943;28;20490;-72
2023/04/22 20:25:18;;;;;;;2.10;1.90;;;14.60;99.90;;;;;;5028539;28;20469;-71
2023/04/22 20:27:45;;;;;;;2.40;2.20;;;14.60;99.90;;;;;;5044147;28;20468;-72
2023/04/22 20:30:13;;;;;;;2.80;2.17;;;14.50;99.90;;;;;;5036711;28;20488;-71
2023/04/22 20:32:40;;;;;;;3.20;2.27;;;14.50;99.90;;;;;;5035667;28;20531;-72
2023/04/22 20:35:11;;;;;;;4.00;1.97;;;14.40;99.90;;;;;;5044669;28;20834;-72
2023/04/22 20:37:39;;;;;;;3.03;2.30;;;14.40;99.90;;;;;;5042733;28;20499;-71
2023/04/22 20:40:08;;;;;;;2.47;2.10;;;14.50;99.90;;;;;;5029554;28;20496;-72
2023/04/22 20:42:35;;;;;;;2.73;2.17;;;14.50;99.90;;;;;;5034139;28;21248;-72
2023/04/22 20:45:04;;;;;;;2.40;2.10;;;14.40;99.90;;;;;;5047469;28;20467;-71
2023/04/22 20:47:31;;;;;;;2.30;2.10;;;14.40;99.90;;;;;;5042131;28;20467;-71
2023/04/22 20:49:58;;;;;;;2.73;2.47;;;14.40;99.90;;;;;;5039054;28;20574;-72
2023/04/22 20:52:26;;;;;;;2.60;2.40;;;14.40;99.90;;;;;;5043971;28;20484;-71
2023/04/22 20:54:55;;;;;;;2.80;2.07;;;14.40;99.90;;;;;;5046912;28;20464;-71
2023/04/22 20:57:22;;;;;;;3.30;2.00;;;14.40;99.90;;;;;;5044993;28;20519;-72
2023/04/22 20:59:49;;;;;;;2.00;1.60;;;14.30;99.90;;;;;;5048159;28;21020;-72
2023/04/22 21:02:16;;;;;;;2.43;2.20;;;14.30;99.90;;;;;;5027185;28;20491;-72
2023/04/22 21:04:43;;;;;;;2.40;1.90;;;14.30;99.90;;;;;;5035996;28;21391;-71
2023/04/22 21:07:13;;;;;;;2.23;1.90;;;14.30;99.90;;;;;;5048672;28;20478;-72
2023/04/22 21:09:42;;;;;;;2.23;1.90;;;14.30;99.90;;;;;;5043972;28;20488;-72
2023/04/22 21:12:10;;;;;;;3.40;1.73;;;14.20;99.90;;;;;;5028657;28;20456;-72
2023/04/22 21:14:37;;;;;;;3.13;2.63;;;14.20;99.90;;;;;;5028865;28;20478;-72
2023/04/22 21:17:09;;;;;;;2.90;2.20;;;14.20;99.90;;;;;;5027160;28;20464;-72
2023/04/22 21:19:38;;;;;;;4.00;2.20;;;14.20;99.90;;;;;;5029194;28;20452;-72
2023/04/22 21:22:06;;;;;;;2.90;2.50;;;14.10;99.90;;;;;;5026695;28;20476;-72
2023/04/22 21:24:33;;;;;;;1.93;1.70;;;14.20;99.90;;;;;;5027352;28;20483;-72
2023/04/22 21:27:02;;;;;;;2.20;2.00;;;14.10;99.90;;;;;;5026367;28;20911;-72
2023/04/22 21:29:29;;;;;;;2.90;2.20;;;14.10;99.90;;;;;;5027436;28;20558;-72
2023/04/22 21:31:56;;;;;;;2.07;1.70;;;14.00;99.90;;;;;;5042635;28;20471;-72
2023/04/22 21:34:23;;;;;;;2.30;2.10;;;14.00;99.90;;;;;;5025590;28;20514;-72
2023/04/22 21:36:50;;;;;;;3.83;1.90;;;13.90;99.90;;;;;;5027362;28;21401;-72
2023/04/22 21:39:17;;;;;;;2.57;1.97;;;13.90;99.90;;;;;;5026955;28;20464;-72
2023/04/22 21:41:44;;;;;;;2.67;1.90;;;13.80;99.90;;;;;;5026837;28;20471;-72
2023/04/22 21:44:12;;;;;;;2.40;1.97;;;13.80;99.90;;;;;;5026557;28;20480;-72
2023/04/22 21:46:39;;;;;;;2.83;2.00;;;13.80;99.90;;;;;;5042162;28;20765;-72
2023/04/22 21:49:05;;;;;;;2.77;2.00;;;13.80;99.90;;;;;;5046947;28;20464;-72
2023/04/22 21:51:32;;;;;;;3.30;2.30;;;13.80;99.90;;;;;;5042277;28;20488;-72
2023/04/22 21:53:59;;;;;;;2.37;2.10;;;13.70;99.90;;;;;;5027459;28;20858;-72
2023/04/22 21:56:26;;;;;;;3.33;2.10;;;13.70;99.90;;;;;;5026962;28;20494;-72